sensor_id;sensor_type;location;lat;lon;timestamp;P1;durP1;ratioP1;P2;durP2;ratioP2
19643;SDS011;9970;-36.854;174.870;2023-07-09T00:00:14;4.00;;;1.90;;
19643;SDS011;9970;-36.854;174.870;2023-07-09T00:02:48;2.33;;;2.17;;
19643;SDS011;9970;-36.854;174.870;2023-07-09T00:05:22;2.37;;;2.17;;
19643;SDS011;9970;-36.854;174.870;2023-07-09T00:07:54;2.27;;;2.10;;
19643;SDS011;9970;-36.854;174.870;2023-07-09T00:10:28;6.47;;;2.00;;
19643;SDS011;9970;-36.854;174.870;2023-07-09T00:13:01;4.10;;;2.40;;
19643;SDS011;9970;-36.854;174.870;2023-07-09T00:15:34;5.80;;;2.20;;
19643;SDS011;9970;-36.854;174.870;2023-07-09T00:18:08;6.60;;;2.50;;
19643;SDS011;9970;-36.854;174.870;2023-07-09T00:20:41;7.93;;;3.30;;
19643;SDS011;9970;-36.854;174.870;2023-07-09T00:23:15;3.73;;;2.23;;
19643;SDS011;9970;-36.854;174.870;2023-07-09T00:25:49;6.50;;;2.70;;
19643;SDS011;9970;-36.854;174.870;2023-07-09T00:28:22;5.97;;;2.40;;
19643;SDS011;9970;-36.854;174.870;2023-07-09T00:30:55;4.63;;;2.57;;
19643;SDS011;9970;-36.854;174.870;2023-07-09T00:33:28;4.67;;;2.00;;
19643;SDS011;9970;-36.854;174.870;2023-07-09T00:36:04;3.43;;;2.10;;
19643;SDS011;9970;-36.854;174.870;2023-07-09T00:38:37;2.50;;;2.37;;
19643;SDS011;9970;-36.854;174.870;2023-07-09T00:41:17;4.93;;;2.40;;
19643;SDS011;9970;-36.854;174.870;2023-07-09T00:43:51;3.43;;;2.23;;
19643;SDS011;9970;-36.854;174.870;2023-07-09T00:49:00;3.37;;;2.03;;
19643;SDS011;9970;-36.854;174.870;2023-07-09T00:51:40;2.43;;;2.23;;
19643;SDS011;9970;-36.854;174.870;2023-07-09T00:54:25;2.30;;;2.10;;
19643;SDS011;9970;-36.854;174.870;2023-07-09T00:57:01;2.70;;;2.20;;
19643;SDS011;9970;-36.854;174.870;2023-07-09T00:59:41;7.53;;;3.77;;
19643;SDS011;9970;-36.854;174.870;2023-07-09T01:02:15;2.20;;;2.10;;
19643;SDS011;9970;-36.854;174.870;2023-07-09T01:04:56;2.33;;;2.33;;
19643;SDS011;9970;-36.854;174.870;2023-07-09T01:07:31;3.67;;;2.30;;
19643;SDS011;9970;-36.854;174.870;2023-07-09T01:13:04;3.23;;;2.93;;
19643;SDS011;9970;-36.854;174.870;2023-07-09T01:15:38;3.00;;;2.90;;
19643;SDS011;9970;-36.854;174.870;2023-07-09T01:18:11;6.87;;;3.20;;
19643;SDS011;9970;-36.854;174.870;2023-07-09T01:20:44;2.33;;;2.13;;
19643;SDS011;9970;-36.854;174.870;2023-07-09T01:23:22;3.70;;;2.80;;
19643;SDS011;9970;-36.854;174.870;2023-07-09T01:25:54;3.70;;;2.10;;
19643;SDS011;9970;-36.854;174.870;2023-07-09T01:28:28;8.43;;;2.40;;
19643;SDS011;9970;-36.854;174.870;2023-07-09T01:31:01;3.57;;;2.30;;
19643;SDS011;9970;-36.854;174.870;2023-07-09T01:33:35;3.70;;;1.87;;
19643;SDS011;9970;-36.854;174.870;2023-07-09T01:36:09;5.83;;;2.03;;
19643;SDS011;9970;-36.854;174.870;2023-07-09T01:38:43;6.70;;;1.90;;
19643;SDS011;9970;-36.854;174.870;2023-07-09T01:41:16;5.33;;;2.00;;
19643;SDS011;9970;-36.854;174.870;2023-07-09T01:43:50;3.80;;;2.50;;
19643;SDS011;9970;-36.854;174.870;2023-07-09T01:46:23;4.10;;;2.73;;
19643;SDS011;9970;-36.854;174.870;2023-07-09T01:49:01;8.03;;;2.70;;
19643;SDS011;9970;-36.854;174.870;2023-07-09T01:51:35;4.00;;;2.37;;
19643;SDS011;9970;-36.854;174.870;2023-07-09T01:54:09;6.83;;;2.43;;
19643;SDS011;9970;-36.854;174.870;2023-07-09T01:56:43;3.83;;;2.67;;
19643;SDS011;9970;-36.854;174.870;2023-07-09T01:59:16;5.70;;;2.53;;
19643;SDS011;9970;-36.854;174.870;2023-07-09T02:01:50;2.47;;;2.37;;
19643;SDS011;9970;-36.854;174.870;2023-07-09T02:04:24;2.73;;;2.50;;
19643;SDS011;9970;-36.854;174.870;2023-07-09T02:06:57;4.10;;;2.10;;
19643;SDS011;9970;-36.854;174.870;2023-07-09T02:09:30;2.03;;;1.80;;
19643;SDS011;9970;-36.854;174.870;2023-07-09T02:12:04;4.20;;;1.90;;
19643;SDS011;9970;-36.854;174.870;2023-07-09T02:14:37;2.60;;;1.87;;
19643;SDS011;9970;-36.854;174.870;2023-07-09T02:17:11;4.80;;;1.93;;
19643;SDS011;9970;-36.854;174.870;2023-07-09T02:19:45;5.60;;;1.80;;
19643;SDS011;9970;-36.854;174.870;2023-07-09T02:22:18;2.57;;;2.47;;
19643;SDS011;9970;-36.854;174.870;2023-07-09T02:24:51;3.03;;;1.90;;
19643;SDS011;9970;-36.854;174.870;2023-07-09T02:27:24;2.50;;;2.00;;
19643;SDS011;9970;-36.854;174.870;2023-07-09T02:29:57;9.73;;;2.80;;
19643;SDS011;9970;-36.854;174.870;2023-07-09T02:32:30;3.83;;;2.47;;
19643;SDS011;9970;-36.854;174.870;2023-07-09T02:35:06;5.80;;;2.57;;
19643;SDS011;9970;-36.854;174.870;2023-07-09T02:37:39;2.30;;;2.10;;
19643;SDS011;9970;-36.854;174.870;2023-07-09T02:40:13;3.60;;;3.27;;
19643;SDS011;9970;-36.854;174.870;2023-07-09T02:42:46;5.97;;;2.10;;
19643;SDS011;9970;-36.854;174.870;2023-07-09T02:45:19;6.87;;;2.70;;
19643;SDS011;9970;-36.854;174.870;2023-07-09T02:47:52;4.83;;;2.07;;
19643;SDS011;9970;-36.854;174.870;2023-07-09T02:50:25;5.23;;;2.70;;
19643;SDS011;9970;-36.854;174.870;2023-07-09T02:52:58;2.60;;;2.50;;
19643;SDS011;9970;-36.854;174.870;2023-07-09T02:55:31;3.03;;;2.00;;
19643;SDS011;9970;-36.854;174.870;2023-07-09T02:58:05;8.77;;;3.40;;
19643;SDS011;9970;-36.854;174.870;2023-07-09T03:00:37;5.50;;;2.97;;
19643;SDS011;9970;-36.854;174.870;2023-07-09T03:03:11;2.77;;;2.77;;
19643;SDS011;9970;-36.854;174.870;2023-07-09T03:05:47;9.13;;;2.23;;
19643;SDS011;9970;-36.854;174.870;2023-07-09T03:08:20;7.10;;;2.17;;
19643;SDS011;9970;-36.854;174.870;2023-07-09T03:10:53;2.53;;;1.90;;
19643;SDS011;9970;-36.854;174.870;2023-07-09T03:13:26;4.60;;;2.00;;
19643;SDS011;9970;-36.854;174.870;2023-07-09T03:15:59;4.90;;;2.30;;
19643;SDS011;9970;-36.854;174.870;2023-07-09T03:18:32;8.33;;;3.60;;
19643;SDS011;9970;-36.854;174.870;2023-07-09T03:21:05;4.00;;;2.00;;
19643;SDS011;9970;-36.854;174.870;2023-07-09T03:23:38;2.00;;;1.90;;
19643;SDS011;9970;-36.854;174.870;2023-07-09T03:26:12;1.90;;;1.90;;
19643;SDS011;9970;-36.854;174.870;2023-07-09T03:28:49;4.30;;;1.90;;
19643;SDS011;9970;-36.854;174.870;2023-07-09T03:31:22;2.63;;;2.43;;
19643;SDS011;9970;-36.854;174.870;2023-07-09T03:33:55;3.47;;;2.27;;
19643;SDS011;9970;-36.854;174.870;2023-07-09T03:36:31;1.77;;;1.67;;
19643;SDS011;9970;-36.854;174.870;2023-07-09T03:39:06;2.00;;;1.90;;
19643;SDS011;9970;-36.854;174.870;2023-07-09T03:41:43;1.87;;;1.73;;
19643;SDS011;9970;-36.854;174.870;2023-07-09T03:44:16;3.07;;;1.80;;
19643;SDS011;9970;-36.854;174.870;2023-07-09T03:46:49;7.83;;;2.03;;
19643;SDS011;9970;-36.854;174.870;2023-07-09T03:49:22;5.50;;;1.97;;
19643;SDS011;9970;-36.854;174.870;2023-07-09T03:51:55;6.23;;;2.83;;
19643;SDS011;9970;-36.854;174.870;2023-07-09T03:54:31;2.80;;;1.63;;
19643;SDS011;9970;-36.854;174.870;2023-07-09T03:57:04;13.77;;;2.60;;
19643;SDS011;9970;-36.854;174.870;2023-07-09T03:59:38;3.57;;;1.60;;
19643;SDS011;9970;-36.854;174.870;2023-07-09T04:02:11;7.90;;;2.20;;
19643;SDS011;9970;-36.854;174.870;2023-07-09T04:04:44;10.70;;;2.63;;
19643;SDS011;9970;-36.854;174.870;2023-07-09T04:07:18;3.87;;;2.10;;
19643;SDS011;9970;-36.854;174.870;2023-07-09T04:10:13;1.50;;;1.50;;
19643;SDS011;9970;-36.854;174.870;2023-07-09T04:12:46;2.33;;;2.10;;
19643;SDS011;9970;-36.854;174.870;2023-07-09T04:15:19;1.77;;;1.77;;
19643;SDS011;9970;-36.854;174.870;2023-07-09T04:17:52;6.73;;;2.67;;
19643;SDS011;9970;-36.854;174.870;2023-07-09T04:20:25;3.90;;;2.50;;
19643;SDS011;9970;-36.854;174.870;2023-07-09T04:22:58;13.13;;;2.60;;
19643;SDS011;9970;-36.854;174.870;2023-07-09T04:25:31;2.57;;;2.37;;
19643;SDS011;9970;-36.854;174.870;2023-07-09T04:28:04;4.27;;;2.40;;
19643;SDS011;9970;-36.854;174.870;2023-07-09T04:30:37;4.87;;;2.80;;
19643;SDS011;9970;-36.854;174.870;2023-07-09T04:33:14;3.40;;;2.13;;
19643;SDS011;9970;-36.854;174.870;2023-07-09T04:35:48;3.63;;;2.43;;
19643;SDS011;9970;-36.854;174.870;2023-07-09T04:38:21;5.07;;;2.40;;
19643;SDS011;9970;-36.854;174.870;2023-07-09T04:40:55;3.30;;;2.60;;
19643;SDS011;9970;-36.854;174.870;2023-07-09T04:43:28;5.30;;;2.17;;
19643;SDS011;9970;-36.854;174.870;2023-07-09T04:46:01;4.10;;;2.70;;
19643;SDS011;9970;-36.854;174.870;2023-07-09T04:48:35;7.97;;;2.93;;
19643;SDS011;9970;-36.854;174.870;2023-07-09T04:51:08;4.00;;;2.30;;
19643;SDS011;9970;-36.854;174.870;2023-07-09T04:53:42;2.60;;;2.40;;
19643;SDS011;9970;-36.854;174.870;2023-07-09T04:56:15;3.20;;;2.30;;
19643;SDS011;9970;-36.854;174.870;2023-07-09T04:58:49;2.57;;;2.37;;
19643;SDS011;9970;-36.854;174.870;2023-07-09T05:01:22;4.20;;;3.40;;
19643;SDS011;9970;-36.854;174.870;2023-07-09T05:03:58;4.80;;;2.33;;
19643;SDS011;9970;-36.854;174.870;2023-07-09T05:06:32;3.73;;;3.40;;
19643;SDS011;9970;-36.854;174.870;2023-07-09T05:09:05;3.90;;;2.57;;
19643;SDS011;9970;-36.854;174.870;2023-07-09T05:11:38;3.13;;;2.93;;
19643;SDS011;9970;-36.854;174.870;2023-07-09T05:14:12;5.97;;;2.40;;
19643;SDS011;9970;-36.854;174.870;2023-07-09T05:16:45;4.20;;;2.43;;
19643;SDS011;9970;-36.854;174.870;2023-07-09T05:19:18;6.00;;;2.97;;
19643;SDS011;9970;-36.854;174.870;2023-07-09T05:21:51;12.33;;;2.87;;
19643;SDS011;9970;-36.854;174.870;2023-07-09T05:24:25;5.57;;;3.03;;
19643;SDS011;9970;-36.854;174.870;2023-07-09T05:26:58;7.40;;;2.43;;
19643;SDS011;9970;-36.854;174.870;2023-07-09T05:29:32;6.40;;;2.70;;
19643;SDS011;9970;-36.854;174.870;2023-07-09T05:32:05;5.53;;;3.03;;
19643;SDS011;9970;-36.854;174.870;2023-07-09T05:34:42;26.10;;;3.40;;
19643;SDS011;9970;-36.854;174.870;2023-07-09T05:37:15;10.93;;;3.60;;
19643;SDS011;9970;-36.854;174.870;2023-07-09T05:39:50;8.67;;;3.13;;
19643;SDS011;9970;-36.854;174.870;2023-07-09T05:42:23;3.90;;;3.30;;
19643;SDS011;9970;-36.854;174.870;2023-07-09T05:45:00;9.90;;;3.87;;
19643;SDS011;9970;-36.854;174.870;2023-07-09T05:47:33;8.77;;;3.43;;
19643;SDS011;9970;-36.854;174.870;2023-07-09T05:50:09;6.00;;;3.30;;
19643;SDS011;9970;-36.854;174.870;2023-07-09T05:52:43;5.13;;;3.60;;
19643;SDS011;9970;-36.854;174.870;2023-07-09T05:55:16;9.87;;;4.07;;
19643;SDS011;9970;-36.854;174.870;2023-07-09T05:57:49;3.23;;;2.70;;
19643;SDS011;9970;-36.854;174.870;2023-07-09T06:00:23;7.33;;;2.90;;
19643;SDS011;9970;-36.854;174.870;2023-07-09T06:02:57;4.53;;;3.10;;
19643;SDS011;9970;-36.854;174.870;2023-07-09T06:05:40;3.87;;;3.63;;
19643;SDS011;9970;-36.854;174.870;2023-07-09T06:08:09;3.00;;;2.90;;
19643;SDS011;9970;-36.854;174.870;2023-07-09T06:10:52;5.90;;;3.80;;
19643;SDS011;9970;-36.854;174.870;2023-07-09T06:13:30;3.67;;;3.47;;
19643;SDS011;9970;-36.854;174.870;2023-07-09T06:16:04;7.30;;;3.87;;
19643;SDS011;9970;-36.854;174.870;2023-07-09T06:18:37;4.93;;;3.60;;
19643;SDS011;9970;-36.854;174.870;2023-07-09T06:21:10;10.37;;;4.30;;
19643;SDS011;9970;-36.854;174.870;2023-07-09T06:23:44;4.87;;;3.10;;
19643;SDS011;9970;-36.854;174.870;2023-07-09T06:26:17;3.53;;;3.13;;
19643;SDS011;9970;-36.854;174.870;2023-07-09T06:28:51;3.47;;;2.97;;
19643;SDS011;9970;-36.854;174.870;2023-07-09T06:31:24;3.50;;;3.20;;
19643;SDS011;9970;-36.854;174.870;2023-07-09T06:34:01;3.60;;;3.00;;
19643;SDS011;9970;-36.854;174.870;2023-07-09T06:36:34;3.90;;;3.20;;
19643;SDS011;9970;-36.854;174.870;2023-07-09T06:39:08;4.20;;;3.23;;
19643;SDS011;9970;-36.854;174.870;2023-07-09T06:41:44;7.53;;;3.80;;
19643;SDS011;9970;-36.854;174.870;2023-07-09T06:44:17;6.10;;;3.00;;
19643;SDS011;9970;-36.854;174.870;2023-07-09T06:46:49;5.00;;;3.53;;
19643;SDS011;9970;-36.854;174.870;2023-07-09T06:49:23;3.40;;;3.10;;
19643;SDS011;9970;-36.854;174.870;2023-07-09T06:51:56;3.50;;;2.73;;
19643;SDS011;9970;-36.854;174.870;2023-07-09T06:54:29;3.77;;;2.67;;
19643;SDS011;9970;-36.854;174.870;2023-07-09T06:57:02;9.57;;;3.43;;
19643;SDS011;9970;-36.854;174.870;2023-07-09T06:59:36;4.83;;;3.60;;
19643;SDS011;9970;-36.854;174.870;2023-07-09T07:02:09;7.27;;;3.10;;
19643;SDS011;9970;-36.854;174.870;2023-07-09T07:04:42;6.23;;;3.17;;
19643;SDS011;9970;-36.854;174.870;2023-07-09T07:07:15;5.00;;;2.60;;
19643;SDS011;9970;-36.854;174.870;2023-07-09T07:09:48;5.80;;;2.87;;
19643;SDS011;9970;-36.854;174.870;2023-07-09T07:12:25;4.30;;;3.30;;
19643;SDS011;9970;-36.854;174.870;2023-07-09T07:14:58;3.83;;;2.97;;
19643;SDS011;9970;-36.854;174.870;2023-07-09T07:17:32;4.20;;;2.73;;
19643;SDS011;9970;-36.854;174.870;2023-07-09T07:20:05;9.43;;;3.93;;
19643;SDS011;9970;-36.854;174.870;2023-07-09T07:22:39;11.40;;;2.80;;
19643;SDS011;9970;-36.854;174.870;2023-07-09T07:25:12;3.30;;;3.00;;
19643;SDS011;9970;-36.854;174.870;2023-07-09T07:27:46;3.43;;;3.17;;
19643;SDS011;9970;-36.854;174.870;2023-07-09T07:30:19;3.27;;;2.90;;
19643;SDS011;9970;-36.854;174.870;2023-07-09T07:32:53;5.20;;;2.40;;
19643;SDS011;9970;-36.854;174.870;2023-07-09T07:35:26;3.10;;;2.90;;
19643;SDS011;9970;-36.854;174.870;2023-07-09T07:37:58;7.80;;;3.37;;
19643;SDS011;9970;-36.854;174.870;2023-07-09T07:40:32;5.13;;;3.03;;
19643;SDS011;9970;-36.854;174.870;2023-07-09T07:43:04;5.80;;;3.17;;
19643;SDS011;9970;-36.854;174.870;2023-07-09T07:45:41;7.83;;;2.90;;
19643;SDS011;9970;-36.854;174.870;2023-07-09T07:48:14;4.97;;;2.87;;
19643;SDS011;9970;-36.854;174.870;2023-07-09T07:50:47;13.33;;;3.83;;
19643;SDS011;9970;-36.854;174.870;2023-07-09T07:53:21;7.97;;;2.90;;
19643;SDS011;9970;-36.854;174.870;2023-07-09T07:55:54;7.00;;;3.50;;
19643;SDS011;9970;-36.854;174.870;2023-07-09T07:58:28;2.97;;;2.77;;
19643;SDS011;9970;-36.854;174.870;2023-07-09T08:01:01;7.60;;;3.17;;
19643;SDS011;9970;-36.854;174.870;2023-07-09T08:03:35;4.20;;;2.80;;
19643;SDS011;9970;-36.854;174.870;2023-07-09T08:06:08;10.27;;;3.27;;
19643;SDS011;9970;-36.854;174.870;2023-07-09T08:08:41;3.10;;;2.50;;
19643;SDS011;9970;-36.854;174.870;2023-07-09T08:11:15;6.37;;;3.33;;
19643;SDS011;9970;-36.854;174.870;2023-07-09T08:13:48;3.50;;;2.60;;
19643;SDS011;9970;-36.854;174.870;2023-07-09T08:16:21;11.53;;;3.83;;
19643;SDS011;9970;-36.854;174.870;2023-07-09T08:18:54;6.60;;;4.07;;
19643;SDS011;9970;-36.854;174.870;2023-07-09T08:21:27;6.17;;;3.03;;
19643;SDS011;9970;-36.854;174.870;2023-07-09T08:24:01;7.40;;;4.70;;
19643;SDS011;9970;-36.854;174.870;2023-07-09T08:26:34;9.33;;;2.70;;
19643;SDS011;9970;-36.854;174.870;2023-07-09T08:29:07;2.87;;;2.67;;
19643;SDS011;9970;-36.854;174.870;2023-07-09T08:31:40;14.73;;;4.53;;
19643;SDS011;9970;-36.854;174.870;2023-07-09T08:34:13;3.40;;;3.10;;
19643;SDS011;9970;-36.854;174.870;2023-07-09T08:36:47;7.70;;;2.73;;
19643;SDS011;9970;-36.854;174.870;2023-07-09T08:39:20;6.33;;;2.67;;
19643;SDS011;9970;-36.854;174.870;2023-07-09T08:47:34;5.47;;;2.57;;
19643;SDS011;9970;-36.854;174.870;2023-07-09T08:50:11;5.87;;;3.17;;
19643;SDS011;9970;-36.854;174.870;2023-07-09T08:52:48;4.13;;;3.00;;
19643;SDS011;9970;-36.854;174.870;2023-07-09T08:55:25;8.63;;;3.00;;
19643;SDS011;9970;-36.854;174.870;2023-07-09T08:57:59;2.80;;;2.70;;
19643;SDS011;9970;-36.854;174.870;2023-07-09T09:00:34;8.03;;;3.00;;
19643;SDS011;9970;-36.854;174.870;2023-07-09T09:03:17;3.30;;;2.77;;
19643;SDS011;9970;-36.854;174.870;2023-07-09T09:05:47;3.13;;;2.83;;
19643;SDS011;9970;-36.854;174.870;2023-07-09T09:08:40;5.50;;;3.30;;
19643;SDS011;9970;-36.854;174.870;2023-07-09T09:16:53;4.70;;;4.30;;
19643;SDS011;9970;-36.854;174.870;2023-07-09T09:19:29;5.90;;;5.40;;
19643;SDS011;9970;-36.854;174.870;2023-07-09T09:22:11;6.80;;;5.33;;
19643;SDS011;9970;-36.854;174.870;2023-07-09T09:27:24;9.37;;;4.37;;
19643;SDS011;9970;-36.854;174.870;2023-07-09T09:29:57;10.23;;;4.43;;
19643;SDS011;9970;-36.854;174.870;2023-07-09T09:32:31;6.60;;;3.53;;
19643;SDS011;9970;-36.854;174.870;2023-07-09T09:35:14;8.53;;;3.60;;
19643;SDS011;9970;-36.854;174.870;2023-07-09T09:37:50;4.00;;;3.60;;
19643;SDS011;9970;-36.854;174.870;2023-07-09T09:40:26;6.33;;;4.50;;
19643;SDS011;9970;-36.854;174.870;2023-07-09T09:43:01;6.17;;;4.73;;
19643;SDS011;9970;-36.854;174.870;2023-07-09T09:45:37;6.03;;;5.10;;
19643;SDS011;9970;-36.854;174.870;2023-07-09T09:48:27;6.87;;;5.30;;
19643;SDS011;9970;-36.854;174.870;2023-07-09T09:50:48;7.63;;;4.23;;
19643;SDS011;9970;-36.854;174.870;2023-07-09T09:53:22;10.47;;;5.93;;
19643;SDS011;9970;-36.854;174.870;2023-07-09T09:55:56;9.37;;;5.67;;
19643;SDS011;9970;-36.854;174.870;2023-07-09T09:58:29;13.20;;;3.97;;
19643;SDS011;9970;-36.854;174.870;2023-07-09T10:01:03;7.90;;;3.83;;
19643;SDS011;9970;-36.854;174.870;2023-07-09T10:03:37;4.13;;;3.93;;
19643;SDS011;9970;-36.854;174.870;2023-07-09T10:06:16;7.37;;;4.23;;
19643;SDS011;9970;-36.854;174.870;2023-07-09T10:17:10;5.30;;;3.80;;
19643;SDS011;9970;-36.854;174.870;2023-07-09T10:19:53;3.27;;;2.47;;
19643;SDS011;9970;-36.854;174.870;2023-07-09T10:22:45;2.87;;;2.47;;
19643;SDS011;9970;-36.854;174.870;2023-07-09T10:34:13;4.40;;;3.10;;
19643;SDS011;9970;-36.854;174.870;2023-07-09T10:39:37;3.10;;;3.00;;
19643;SDS011;9970;-36.854;174.870;2023-07-09T10:42:15;8.47;;;4.20;;
19643;SDS011;9970;-36.854;174.870;2023-07-09T10:44:49;9.63;;;3.90;;
19643;SDS011;9970;-36.854;174.870;2023-07-09T10:47:28;5.80;;;4.10;;
19643;SDS011;9970;-36.854;174.870;2023-07-09T10:50:01;4.57;;;3.03;;
19643;SDS011;9970;-36.854;174.870;2023-07-09T10:52:41;2.77;;;2.53;;
19643;SDS011;9970;-36.854;174.870;2023-07-09T10:57:54;5.70;;;2.87;;
19643;SDS011;9970;-36.854;174.870;2023-07-09T11:00:35;3.67;;;2.97;;
19643;SDS011;9970;-36.854;174.870;2023-07-09T11:03:13;6.17;;;2.60;;
19643;SDS011;9970;-36.854;174.870;2023-07-09T11:05:49;4.33;;;3.13;;
19643;SDS011;9970;-36.854;174.870;2023-07-09T11:08:34;3.03;;;2.70;;
19643;SDS011;9970;-36.854;174.870;2023-07-09T11:11:05;5.97;;;2.40;;
19643;SDS011;9970;-36.854;174.870;2023-07-09T11:13:43;2.43;;;2.17;;
19643;SDS011;9970;-36.854;174.870;2023-07-09T11:16:23;6.40;;;2.40;;
19643;SDS011;9970;-36.854;174.870;2023-07-09T11:19:01;6.67;;;2.83;;
19643;SDS011;9970;-36.854;174.870;2023-07-09T11:21:40;2.83;;;2.63;;
19643;SDS011;9970;-36.854;174.870;2023-07-09T11:24:24;3.10;;;2.90;;
19643;SDS011;9970;-36.854;174.870;2023-07-09T11:26:49;3.73;;;3.53;;
19643;SDS011;9970;-36.854;174.870;2023-07-09T11:29:22;8.20;;;4.87;;
19643;SDS011;9970;-36.854;174.870;2023-07-09T11:32:06;5.47;;;4.27;;
19643;SDS011;9970;-36.854;174.870;2023-07-09T11:34:32;3.80;;;2.90;;
19643;SDS011;9970;-36.854;174.870;2023-07-09T11:37:08;2.57;;;2.47;;
19643;SDS011;9970;-36.854;174.870;2023-07-09T11:42:26;5.00;;;2.83;;
19643;SDS011;9970;-36.854;174.870;2023-07-09T11:45:08;3.90;;;1.97;;
19643;SDS011;9970;-36.854;174.870;2023-07-09T11:48:07;5.97;;;2.77;;
19643;SDS011;9970;-36.854;174.870;2023-07-09T11:50:31;4.63;;;3.37;;
19643;SDS011;9970;-36.854;174.870;2023-07-09T11:53:05;5.77;;;4.93;;
19643;SDS011;9970;-36.854;174.870;2023-07-09T11:55:56;6.43;;;2.70;;
19643;SDS011;9970;-36.854;174.870;2023-07-09T11:58:29;5.20;;;3.27;;
19643;SDS011;9970;-36.854;174.870;2023-07-09T12:01:02;10.30;;;3.73;;
19643;SDS011;9970;-36.854;174.870;2023-07-09T12:03:39;2.93;;;2.73;;
19643;SDS011;9970;-36.854;174.870;2023-07-09T12:06:21;4.37;;;3.00;;
19643;SDS011;9970;-36.854;174.870;2023-07-09T12:08:56;6.67;;;4.70;;
19643;SDS011;9970;-36.854;174.870;2023-07-09T12:11:31;4.93;;;4.47;;
19643;SDS011;9970;-36.854;174.870;2023-07-09T12:14:05;11.30;;;3.03;;
19643;SDS011;9970;-36.854;174.870;2023-07-09T12:16:50;5.40;;;2.83;;
19643;SDS011;9970;-36.854;174.870;2023-07-09T12:19:24;5.67;;;3.20;;
19643;SDS011;9970;-36.854;174.870;2023-07-09T12:21:58;6.90;;;2.87;;
19643;SDS011;9970;-36.854;174.870;2023-07-09T12:24:35;2.83;;;2.63;;
19643;SDS011;9970;-36.854;174.870;2023-07-09T12:27:21;3.33;;;2.70;;
19643;SDS011;9970;-36.854;174.870;2023-07-09T12:29:54;5.07;;;3.40;;
19643;SDS011;9970;-36.854;174.870;2023-07-09T12:32:28;3.97;;;2.60;;
19643;SDS011;9970;-36.854;174.870;2023-07-09T12:35:01;6.37;;;3.40;;
19643;SDS011;9970;-36.854;174.870;2023-07-09T12:37:34;3.23;;;2.43;;
19643;SDS011;9970;-36.854;174.870;2023-07-09T12:40:15;3.73;;;2.40;;
19643;SDS011;9970;-36.854;174.870;2023-07-09T12:42:49;8.73;;;2.90;;
19643;SDS011;9970;-36.854;174.870;2023-07-09T12:45:24;2.60;;;2.40;;
19643;SDS011;9970;-36.854;174.870;2023-07-09T12:47:57;6.30;;;3.27;;
19643;SDS011;9970;-36.854;174.870;2023-07-09T12:50:31;4.63;;;2.80;;
19643;SDS011;9970;-36.854;174.870;2023-07-09T12:53:16;5.20;;;3.20;;
19643;SDS011;9970;-36.854;174.870;2023-07-09T12:55:47;2.50;;;2.30;;
19643;SDS011;9970;-36.854;174.870;2023-07-09T12:58:27;3.57;;;3.17;;
19643;SDS011;9970;-36.854;174.870;2023-07-09T13:00:57;2.30;;;1.80;;
19643;SDS011;9970;-36.854;174.870;2023-07-09T13:03:32;2.83;;;2.57;;
19643;SDS011;9970;-36.854;174.870;2023-07-09T13:06:20;2.27;;;2.13;;
19643;SDS011;9970;-36.854;174.870;2023-07-09T13:09:00;1.97;;;1.77;;
19643;SDS011;9970;-36.854;174.870;2023-07-09T13:11:35;2.60;;;2.40;;
19643;SDS011;9970;-36.854;174.870;2023-07-09T13:14:16;5.80;;;3.00;;
19643;SDS011;9970;-36.854;174.870;2023-07-09T13:16:50;3.13;;;2.10;;
19643;SDS011;9970;-36.854;174.870;2023-07-09T13:19:23;6.27;;;1.97;;
19643;SDS011;9970;-36.854;174.870;2023-07-09T13:21:56;3.93;;;2.30;;
19643;SDS011;9970;-36.854;174.870;2023-07-09T13:24:29;2.30;;;2.10;;
19643;SDS011;9970;-36.854;174.870;2023-07-09T13:27:04;2.40;;;2.20;;
19643;SDS011;9970;-36.854;174.870;2023-07-09T13:29:38;2.10;;;1.83;;
19643;SDS011;9970;-36.854;174.870;2023-07-09T13:32:13;3.63;;;2.30;;
19643;SDS011;9970;-36.854;174.870;2023-07-09T13:34:47;6.17;;;2.27;;
19643;SDS011;9970;-36.854;174.870;2023-07-09T13:37:24;2.50;;;2.30;;
19643;SDS011;9970;-36.854;174.870;2023-07-09T13:39:57;2.90;;;2.13;;
19643;SDS011;9970;-36.854;174.870;2023-07-09T13:42:34;7.77;;;2.20;;
19643;SDS011;9970;-36.854;174.870;2023-07-09T13:45:25;4.43;;;2.53;;
19643;SDS011;9970;-36.854;174.870;2023-07-09T13:47:56;2.30;;;2.20;;
19643;SDS011;9970;-36.854;174.870;2023-07-09T13:50:29;2.93;;;2.10;;
19643;SDS011;9970;-36.854;174.870;2023-07-09T13:53:03;6.37;;;2.17;;
19643;SDS011;9970;-36.854;174.870;2023-07-09T13:55:37;6.53;;;2.33;;
19643;SDS011;9970;-36.854;174.870;2023-07-09T13:58:14;6.00;;;2.33;;
19643;SDS011;9970;-36.854;174.870;2023-07-09T14:00:49;3.20;;;2.17;;
19643;SDS011;9970;-36.854;174.870;2023-07-09T14:03:24;3.63;;;2.30;;
19643;SDS011;9970;-36.854;174.870;2023-07-09T14:05:58;2.27;;;2.07;;
19643;SDS011;9970;-36.854;174.870;2023-07-09T14:08:31;3.67;;;2.03;;
19643;SDS011;9970;-36.854;174.870;2023-07-09T14:11:07;4.73;;;2.23;;
19643;SDS011;9970;-36.854;174.870;2023-07-09T14:13:42;3.43;;;2.30;;
19643;SDS011;9970;-36.854;174.870;2023-07-09T14:16:16;2.53;;;2.07;;
19643;SDS011;9970;-36.854;174.870;2023-07-09T14:18:49;6.37;;;2.23;;
19643;SDS011;9970;-36.854;174.870;2023-07-09T14:21:27;3.03;;;2.47;;
19643;SDS011;9970;-36.854;174.870;2023-07-09T14:23:58;4.20;;;2.20;;
19643;SDS011;9970;-36.854;174.870;2023-07-09T14:26:32;2.53;;;2.27;;
19643;SDS011;9970;-36.854;174.870;2023-07-09T14:29:05;6.57;;;2.30;;
19643;SDS011;9970;-36.854;174.870;2023-07-09T14:31:38;3.33;;;1.80;;
19643;SDS011;9970;-36.854;174.870;2023-07-09T14:34:18;7.10;;;2.40;;
19643;SDS011;9970;-36.854;174.870;2023-07-09T14:36:53;2.70;;;2.50;;
19643;SDS011;9970;-36.854;174.870;2023-07-09T14:39:27;5.67;;;1.90;;
19643;SDS011;9970;-36.854;174.870;2023-07-09T14:42:00;2.80;;;2.20;;
19643;SDS011;9970;-36.854;174.870;2023-07-09T14:44:33;2.70;;;2.50;;
19643;SDS011;9970;-36.854;174.870;2023-07-09T14:47:19;5.13;;;2.13;;
19643;SDS011;9970;-36.854;174.870;2023-07-09T14:49:53;3.40;;;2.50;;
19643;SDS011;9970;-36.854;174.870;2023-07-09T14:52:26;3.07;;;2.17;;
19643;SDS011;9970;-36.854;174.870;2023-07-09T14:55:00;3.03;;;2.40;;
19643;SDS011;9970;-36.854;174.870;2023-07-09T14:57:37;7.40;;;2.03;;
19643;SDS011;9970;-36.854;174.870;2023-07-09T15:00:22;8.83;;;3.43;;
19643;SDS011;9970;-36.854;174.870;2023-07-09T15:02:52;2.30;;;1.90;;
19643;SDS011;9970;-36.854;174.870;2023-07-09T15:05:30;4.27;;;2.20;;
19643;SDS011;9970;-36.854;174.870;2023-07-09T15:08:12;2.03;;;1.83;;
19643;SDS011;9970;-36.854;174.870;2023-07-09T15:10:45;4.53;;;2.60;;
19643;SDS011;9970;-36.854;174.870;2023-07-09T15:13:30;4.43;;;2.80;;
19643;SDS011;9970;-36.854;174.870;2023-07-09T15:16:04;3.53;;;2.20;;
19643;SDS011;9970;-36.854;174.870;2023-07-09T15:18:37;3.93;;;2.60;;
19643;SDS011;9970;-36.854;174.870;2023-07-09T15:21:10;4.97;;;2.43;;
19643;SDS011;9970;-36.854;174.870;2023-07-09T15:23:44;6.83;;;2.63;;
19643;SDS011;9970;-36.854;174.870;2023-07-09T15:26:17;3.20;;;2.40;;
19643;SDS011;9970;-36.854;174.870;2023-07-09T15:28:50;7.20;;;2.50;;
19643;SDS011;9970;-36.854;174.870;2023-07-09T15:31:26;10.57;;;2.27;;
19643;SDS011;9970;-36.854;174.870;2023-07-09T15:33:59;2.50;;;2.27;;
19643;SDS011;9970;-36.854;174.870;2023-07-09T15:36:32;2.87;;;2.10;;
19643;SDS011;9970;-36.854;174.870;2023-07-09T15:39:07;10.10;;;3.63;;
19643;SDS011;9970;-36.854;174.870;2023-07-09T15:41:41;3.77;;;2.83;;
19643;SDS011;9970;-36.854;174.870;2023-07-09T15:44:15;5.03;;;2.93;;
19643;SDS011;9970;-36.854;174.870;2023-07-09T15:46:55;3.33;;;2.90;;
19643;SDS011;9970;-36.854;174.870;2023-07-09T15:49:25;14.13;;;3.50;;